sensor_id;sensor_type;location;lat;lon;timestamp;P1;P2;P0
70691;PMS5003;58267;51.156;17.044;2023-10-09T07:06:35;7;7;
70691;PMS5003;58267;51.156;17.044;2023-10-09T07:09:00;8;8;
70691;PMS5003;58267;51.156;17.044;2023-10-09T07:11:26;9;8;
70691;PMS5003;58267;51.156;17.044;2023-10-09T07:13:52;8;8;
70691;PMS5003;58267;51.156;17.044;2023-10-09T07:16:17;9;9;
70691;PMS5003;58267;51.156;17.044;2023-10-09T07:18:42;9;8;
70691;PMS5003;58267;51.156;17.044;2023-10-09T07:21:07;8;8;
70691;PMS5003;58267;51.156;17.044;2023-10-09T07:23:32;7;7;
70691;PMS5003;58267;51.156;17.044;2023-10-09T07:26:02;9;9;
70691;PMS5003;58267;51.156;17.044;2023-10-09T07:28:23;8;8;
70691;PMS5003;58267;51.156;17.044;2023-10-09T07:30:48;7;6;
70691;PMS5003;58267;51.156;17.044;2023-10-09T07:33:14;10;10;
70691;PMS5003;58267;51.156;17.044;2023-10-09T07:35:39;8;8;
70691;PMS5003;58267;51.156;17.044;2023-10-09T07:38:04;8;8;
70691;PMS5003;58267;51.156;17.044;2023-10-09T07:40:29;8;8;
70691;PMS5003;58267;51.156;17.044;2023-10-09T07:42:54;6;6;
70691;PMS5003;58267;51.156;17.044;2023-10-09T07:45:19;7;7;
70691;PMS5003;58267;51.156;17.044;2023-10-09T07:47:45;8;8;
70691;PMS5003;58267;51.156;17.044;2023-10-09T07:50:10;7;7;
70691;PMS5003;58267;51.156;17.044;2023-10-09T07:52:35;6;6;
70691;PMS5003;58267;51.156;17.044;2023-10-09T07:55:00;8;8;
70691;PMS5003;58267;51.156;17.044;2023-10-09T07:57:25;8;8;
70691;PMS5003;58267;51.156;17.044;2023-10-09T07:59:51;7;7;
70691;PMS5003;58267;51.156;17.044;2023-10-09T08:02:16;8;7;
70691;PMS5003;58267;51.156;17.044;2023-10-09T08:04:41;6;6;
70691;PMS5003;58267;51.156;17.044;2023-10-09T08:07:07;9;8;
70691;PMS5003;58267;51.156;17.044;2023-10-09T08:09:31;10;9;
70691;PMS5003;58267;51.156;17.044;2023-10-09T08:11:56;12;12;
70691;PMS5003;58267;51.156;17.044;2023-10-09T08:14:22;12;12;
70691;PMS5003;58267;51.156;17.044;2023-10-09T08:16:47;12;12;
70691;PMS5003;58267;51.156;17.044;2023-10-09T08:19:13;10;10;
70691;PMS5003;58267;51.156;17.044;2023-10-09T08:21:38;7;7;
70691;PMS5003;58267;51.156;17.044;2023-10-09T08:24:03;11;10;
70691;PMS5003;58267;51.156;17.044;2023-10-09T08:26:28;8;7;
70691;PMS5003;58267;51.156;17.044;2023-10-09T08:28:54;7;7;
70691;PMS5003;58267;51.156;17.044;2023-10-09T08:31:19;5;5;
70691;PMS5003;58267;51.156;17.044;2023-10-09T08:33:45;7;6;
70691;PMS5003;58267;51.156;17.044;2023-10-09T08:36:10;6;6;
70691;PMS5003;58267;51.156;17.044;2023-10-09T08:38:35;6;6;
70691;PMS5003;58267;51.156;17.044;2023-10-09T08:43:26;12;11;
70691;PMS5003;58267;51.156;17.044;2023-10-09T08:45:52;6;6;
70691;PMS5003;58267;51.156;17.044;2023-10-09T08:48:16;5;5;
70691;PMS5003;58267;51.156;17.044;2023-10-09T08:50:42;10;9;
70691;PMS5003;58267;51.156;17.044;2023-10-09T08:53:06;8;7;
70691;PMS5003;58267;51.156;17.044;2023-10-09T08:55:32;6;6;
70691;PMS5003;58267;51.156;17.044;2023-10-09T08:57:57;129;120;
70691;PMS5003;58267;51.156;17.044;2023-10-09T09:00:23;24;22;
70691;PMS5003;58267;51.156;17.044;2023-10-09T09:02:49;42;41;
70691;PMS5003;58267;51.156;17.044;2023-10-09T09:05:17;9;9;
70691;PMS5003;58267;51.156;17.044;2023-10-09T09:07:39;5;5;
70691;PMS5003;58267;51.156;17.044;2023-10-09T09:10:05;6;6;
70691;PMS5003;58267;51.156;17.044;2023-10-09T09:12:30;7;6;
70691;PMS5003;58267;51.156;17.044;2023-10-09T09:14:55;8;8;
70691;PMS5003;58267;51.156;17.044;2023-10-09T09:17:22;6;6;
70691;PMS5003;58267;51.156;17.044;2023-10-09T09:19:46;4;4;
70691;PMS5003;58267;51.156;17.044;2023-10-09T09:22:11;6;6;
70691;PMS5003;58267;51.156;17.044;2023-10-09T09:24:36;6;6;
70691;PMS5003;58267;51.156;17.044;2023-10-09T09:27:03;5;5;
70691;PMS5003;58267;51.156;17.044;2023-10-09T09:31:53;5;5;
70691;PMS5003;58267;51.156;17.044;2023-10-09T09:34:18;8;7;
70691;PMS5003;58267;51.156;17.044;2023-10-09T09:39:08;6;5;
70691;PMS5003;58267;51.156;17.044;2023-10-09T09:41:33;6;6;
70691;PMS5003;58267;51.156;17.044;2023-10-09T09:43:59;5;5;
70691;PMS5003;58267;51.156;17.044;2023-10-09T09:46:24;5;5;
70691;PMS5003;58267;51.156;17.044;2023-10-09T09:48:50;6;5;
70691;PMS5003;58267;51.156;17.044;2023-10-09T09:51:15;6;6;
70691;PMS5003;58267;51.156;17.044;2023-10-09T09:53:40;9;9;
70691;PMS5003;58267;51.156;17.044;2023-10-09T09:56:06;4;4;
70691;PMS5003;58267;51.156;17.044;2023-10-09T09:58:31;9;8;
70691;PMS5003;58267;51.156;17.044;2023-10-09T10:00:58;5;5;
70691;PMS5003;58267;51.156;17.044;2023-10-09T10:03:23;5;5;
70691;PMS5003;58267;51.156;17.044;2023-10-09T10:05:46;7;6;
70691;PMS5003;58267;51.156;17.044;2023-10-09T10:08:14;5;5;
70691;PMS5003;58267;51.156;17.044;2023-10-09T10:10:37;6;5;
70691;PMS5003;58267;51.156;17.044;2023-10-09T10:13:02;5;5;
70691;PMS5003;58267;51.156;17.044;2023-10-09T10:20:18;7;7;
70691;PMS5003;58267;51.156;17.044;2023-10-09T10:22:43;5;5;
70691;PMS5003;58267;51.156;17.044;2023-10-09T10:25:08;9;9;
70691;PMS5003;58267;51.156;17.044;2023-10-09T10:27:34;13;12;
70691;PMS5003;58267;51.156;17.044;2023-10-09T10:32:24;8;7;
70691;PMS5003;58267;51.156;17.044;2023-10-09T10:34:52;7;6;
70691;PMS5003;58267;51.156;17.044;2023-10-09T10:37:14;5;5;
70691;PMS5003;58267;51.156;17.044;2023-10-09T10:42:05;7;5;
70691;PMS5003;58267;51.156;17.044;2023-10-09T10:44:31;8;7;
70691;PMS5003;58267;51.156;17.044;2023-10-09T10:46:56;9;8;
70691;PMS5003;58267;51.156;17.044;2023-10-09T10:49:21;6;6;
70691;PMS5003;58267;51.156;17.044;2023-10-09T10:51:46;22;21;
70691;PMS5003;58267;51.156;17.044;2023-10-09T10:54:11;10;9;
70691;PMS5003;58267;51.156;17.044;2023-10-09T10:56:37;6;6;
70691;PMS5003;58267;51.156;17.044;2023-10-09T10:59:02;9;8;
70691;PMS5003;58267;51.156;17.044;2023-10-09T11:01:29;10;9;
70691;PMS5003;58267;51.156;17.044;2023-10-09T11:03:52;10;10;
70691;PMS5003;58267;51.156;17.044;2023-10-09T11:08:44;8;8;
70691;PMS5003;58267;51.156;17.044;2023-10-09T11:11:11;8;8;
70691;PMS5003;58267;51.156;17.044;2023-10-09T11:13:33;8;7;
70691;PMS5003;58267;51.156;17.044;2023-10-09T11:15:59;11;10;
70691;PMS5003;58267;51.156;17.044;2023-10-09T11:18:24;9;9;
70691;PMS5003;58267;51.156;17.044;2023-10-09T11:20:50;9;8;
70691;PMS5003;58267;51.156;17.044;2023-10-09T11:23:15;8;8;
70691;PMS5003;58267;51.156;17.044;2023-10-09T11:25:41;8;8;
70691;PMS5003;58267;51.156;17.044;2023-10-09T11:30:30;7;7;
70691;PMS5003;58267;51.156;17.044;2023-10-09T11:35:20;4;4;
70691;PMS5003;58267;51.156;17.044;2023-10-09T11:42:36;10;9;
70691;PMS5003;58267;51.156;17.044;2023-10-09T11:45:02;8;8;
70691;PMS5003;58267;51.156;17.044;2023-10-09T11:47:33;13;12;
70691;PMS5003;58267;51.156;17.044;2023-10-09T11:49:52;9;9;
70691;PMS5003;58267;51.156;17.044;2023-10-09T11:52:17;11;10;
70691;PMS5003;58267;51.156;17.044;2023-10-09T11:54:42;15;13;
70691;PMS5003;58267;51.156;17.044;2023-10-09T11:57:08;12;11;
70691;PMS5003;58267;51.156;17.044;2023-10-09T11:59:34;10;10;
70691;PMS5003;58267;51.156;17.044;2023-10-09T12:01:58;12;11;
70691;PMS5003;58267;51.156;17.044;2023-10-09T12:04:24;10;10;
70691;PMS5003;58267;51.156;17.044;2023-10-09T12:06:49;11;10;
70691;PMS5003;58267;51.156;17.044;2023-10-09T12:09:14;11;11;
70691;PMS5003;58267;51.156;17.044;2023-10-09T12:11:39;12;11;
70691;PMS5003;58267;51.156;17.044;2023-10-09T12:14:04;6;6;
70691;PMS5003;58267;51.156;17.044;2023-10-09T12:16:29;7;7;
70691;PMS5003;58267;51.156;17.044;2023-10-09T12:18:55;10;9;
70691;PMS5003;58267;51.156;17.044;2023-10-09T12:21:20;6;6;
70691;PMS5003;58267;51.156;17.044;2023-10-09T12:23:45;8;8;
70691;PMS5003;58267;51.156;17.044;2023-10-09T12:26:10;9;9;
70691;PMS5003;58267;51.156;17.044;2023-10-09T12:28:36;9;8;
70691;PMS5003;58267;51.156;17.044;2023-10-09T12:31:01;11;9;
70691;PMS5003;58267;51.156;17.044;2023-10-09T12:33:26;9;8;
70691;PMS5003;58267;51.156;17.044;2023-10-09T12:35:51;8;7;
70691;PMS5003;58267;51.156;17.044;2023-10-09T12:38:16;9;9;
70691;PMS5003;58267;51.156;17.044;2023-10-09T12:40:41;9;9;
70691;PMS5003;58267;51.156;17.044;2023-10-09T12:43:06;8;8;
70691;PMS5003;58267;51.156;17.044;2023-10-09T12:45:33;10;8;
70691;PMS5003;58267;51.156;17.044;2023-10-09T12:47:57;10;10;
70691;PMS5003;58267;51.156;17.044;2023-10-09T12:50:22;9;8;
70691;PMS5003;58267;51.156;17.044;2023-10-09T12:52:47;8;8;
70691;PMS5003;58267;51.156;17.044;2023-10-09T12:55:13;15;14;
70691;PMS5003;58267;51.156;17.044;2023-10-09T12:57:38;11;11;
70691;PMS5003;58267;51.156;17.044;2023-10-09T13:00:04;8;8;
70691;PMS5003;58267;51.156;17.044;2023-10-09T13:02:28;7;7;
70691;PMS5003;58267;51.156;17.044;2023-10-09T13:04:54;9;9;
70691;PMS5003;58267;51.156;17.044;2023-10-09T13:07:19;8;8;
70691;PMS5003;58267;51.156;17.044;2023-10-09T13:09:44;8;8;
70691;PMS5003;58267;51.156;17.044;2023-10-09T13:12:09;8;8;
70691;PMS5003;58267;51.156;17.044;2023-10-09T13:14:34;7;7;
70691;PMS5003;58267;51.156;17.044;2023-10-09T13:17:00;9;9;
70691;PMS5003;58267;51.156;17.044;2023-10-09T13:19:25;11;11;
70691;PMS5003;58267;51.156;17.044;2023-10-09T13:21:50;9;9;
70691;PMS5003;58267;51.156;17.044;2023-10-09T13:24:15;8;8;
70691;PMS5003;58267;51.156;17.044;2023-10-09T13:26:40;9;9;
70691;PMS5003;58267;51.156;17.044;2023-10-09T13:29:06;8;8;
70691;PMS5003;58267;51.156;17.044;2023-10-09T13:31:31;8;8;
70691;PMS5003;58267;51.156;17.044;2023-10-09T13:33:56;11;10;
70691;PMS5003;58267;51.156;17.044;2023-10-09T13:36:21;11;10;
70691;PMS5003;58267;51.156;17.044;2023-10-09T13:38:46;10;10;
70691;PMS5003;58267;51.156;17.044;2023-10-09T13:41:12;40;37;
70691;PMS5003;58267;51.156;17.044;2023-10-09T13:43:38;13;13;
70691;PMS5003;58267;51.156;17.044;2023-10-09T13:46:02;13;13;
70691;PMS5003;58267;51.156;17.044;2023-10-09T13:48:28;10;10;
70691;PMS5003;58267;51.156;17.044;2023-10-09T13:50:57;8;8;
70691;PMS5003;58267;51.156;17.044;2023-10-09T13:53:19;11;11;
70691;PMS5003;58267;51.156;17.044;2023-10-09T13:55:44;10;9;
70691;PMS5003;58267;51.156;17.044;2023-10-09T13:58:09;9;9;
70691;PMS5003;58267;51.156;17.044;2023-10-09T14:00:35;8;7;
70691;PMS5003;58267;51.156;17.044;2023-10-09T14:03:00;6;6;
70691;PMS5003;58267;51.156;17.044;2023-10-09T14:05:26;8;8;
70691;PMS5003;58267;51.156;17.044;2023-10-09T14:07:51;8;8;
70691;PMS5003;58267;51.156;17.044;2023-10-09T14:10:16;8;8;
70691;PMS5003;58267;51.156;17.044;2023-10-09T14:12:41;9;9;
70691;PMS5003;58267;51.156;17.044;2023-10-09T14:15:06;9;8;
70691;PMS5003;58267;51.156;17.044;2023-10-09T14:17:31;8;8;
70691;PMS5003;58267;51.156;17.044;2023-10-09T14:19:57;8;7;
70691;PMS5003;58267;51.156;17.044;2023-10-09T14:22:23;9;7;
70691;PMS5003;58267;51.156;17.044;2023-10-09T14:24:48;13;12;
70691;PMS5003;58267;51.156;17.044;2023-10-09T14:27:13;7;7;
70691;PMS5003;58267;51.156;17.044;2023-10-09T14:29:38;9;8;
70691;PMS5003;58267;51.156;17.044;2023-10-09T14:32:04;10;10;
70691;PMS5003;58267;51.156;17.044;2023-10-09T14:34:29;9;9;
70691;PMS5003;58267;51.156;17.044;2023-10-09T14:36:54;10;9;
70691;PMS5003;58267;51.156;17.044;2023-10-09T14:39:19;8;8;
70691;PMS5003;58267;51.156;17.044;2023-10-09T14:41:44;9;9;
70691;PMS5003;58267;51.156;17.044;2023-10-09T14:44:09;11;10;
70691;PMS5003;58267;51.156;17.044;2023-10-09T14:46:35;9;9;
70691;PMS5003;58267;51.156;17.044;2023-10-09T14:49:00;7;7;
70691;PMS5003;58267;51.156;17.044;2023-10-09T14:51:25;9;8;
70691;PMS5003;58267;51.156;17.044;2023-10-09T14:53:50;10;9;
70691;PMS5003;58267;51.156;17.044;2023-10-09T14:56:16;10;10;
70691;PMS5003;58267;51.156;17.044;2023-10-09T14:58:41;11;10;
70691;PMS5003;58267;51.156;17.044;2023-10-09T15:01:08;9;8;
70691;PMS5003;58267;51.156;17.044;2023-10-09T15:03:32;10;9;
70691;PMS5003;58267;51.156;17.044;2023-10-09T15:05:58;10;9;
70691;PMS5003;58267;51.156;17.044;2023-10-09T15:08:22;9;9;
70691;PMS5003;58267;51.156;17.044;2023-10-09T15:10:48;10;10;
70691;PMS5003;58267;51.156;17.044;2023-10-09T15:13:12;10;10;
70691;PMS5003;58267;51.156;17.044;2023-10-09T15:15:39;10;9;
70691;PMS5003;58267;51.156;17.044;2023-10-09T15:18:03;12;12;
70691;PMS5003;58267;51.156;17.044;2023-10-09T15:20:28;10;10;
70691;PMS5003;58267;51.156;17.044;2023-10-09T15:22:53;11;11;
70691;PMS5003;58267;51.156;17.044;2023-10-09T15:25:19;11;10;
70691;PMS5003;58267;51.156;17.044;2023-10-09T15:27:44;12;11;
70691;PMS5003;58267;51.156;17.044;2023-10-09T15:30:10;11;11;
70691;PMS5003;58267;51.156;17.044;2023-10-09T15:32:34;10;10;
70691;PMS5003;58267;51.156;17.044;2023-10-09T15:35:00;9;9;
70691;PMS5003;58267;51.156;17.044;2023-10-09T15:37:25;8;8;
70691;PMS5003;58267;51.156;17.044;2023-10-09T15:39:50;9;9;
70691;PMS5003;58267;51.156;17.044;2023-10-09T15:42:16;10;9;
70691;PMS5003;58267;51.156;17.044;2023-10-09T15:44:41;9;9;
70691;PMS5003;58267;51.156;17.044;2023-10-09T15:47:06;11;11;
70691;PMS5003;58267;51.156;17.044;2023-10-09T15:49:31;9;9;
70691;PMS5003;58267;51.156;17.044;2023-10-09T15:51:57;9;9;
70691;PMS5003;58267;51.156;17.044;2023-10-09T15:54:22;9;8;
70691;PMS5003;58267;51.156;17.044;2023-10-09T15:56:48;9;9;
70691;PMS5003;58267;51.156;17.044;2023-10-09T15:59:13;8;8;
70691;PMS5003;58267;51.156;17.044;2023-10-09T16:01:38;12;11;
70691;PMS5003;58267;51.156;17.044;2023-10-09T16:04:03;12;11;
70691;PMS5003;58267;51.156;17.044;2023-10-09T16:06:28;10;10;
70691;PMS5003;58267;51.156;17.044;2023-10-09T16:08:54;12;12;
70691;PMS5003;58267;51.156;17.044;2023-10-09T16:11:19;11;11;
70691;PMS5003;58267;51.156;17.044;2023-10-09T16:13:44;11;10;
70691;PMS5003;58267;51.156;17.044;2023-10-09T16:16:09;12;12;
70691;PMS5003;58267;51.156;17.044;2023-10-09T16:18:35;12;12;
70691;PMS5003;58267;51.156;17.044;2023-10-09T16:21:00;12;11;
70691;PMS5003;58267;51.156;17.044;2023-10-09T16:23:26;12;12;
70691;PMS5003;58267;51.156;17.044;2023-10-09T16:25:51;12;11;
70691;PMS5003;58267;51.156;17.044;2023-10-09T16:28:16;12;11;
70691;PMS5003;58267;51.156;17.044;2023-10-09T16:30:41;10;10;
70691;PMS5003;58267;51.156;17.044;2023-10-09T16:33:06;14;13;
70691;PMS5003;58267;51.156;17.044;2023-10-09T16:35:31;17;16;
70691;PMS5003;58267;51.156;17.044;2023-10-09T16:37:57;13;13;
70691;PMS5003;58267;51.156;17.044;2023-10-09T16:40:22;11;11;
70691;PMS5003;58267;51.156;17.044;2023-10-09T16:42:47;13;13;
70691;PMS5003;58267;51.156;17.044;2023-10-09T16:45:12;14;12;
70691;PMS5003;58267;51.156;17.044;2023-10-09T16:47:38;12;12;
70691;PMS5003;58267;51.156;17.044;2023-10-09T16:50:03;14;13;
70691;PMS5003;58267;51.156;17.044;2023-10-09T16:52:28;13;11;
70691;PMS5003;58267;51.156;17.044;2023-10-09T16:54:53;14;14;
70691;PMS5003;58267;51.156;17.044;2023-10-09T16:57:19;13;13;
70691;PMS5003;58267;51.156;17.044;2023-10-09T16:59:44;13;13;
70691;PMS5003;58267;51.156;17.044;2023-10-09T17:02:09;14;14;
70691;PMS5003;58267;51.156;17.044;2023-10-09T17:04:34;10;10;
70691;PMS5003;58267;51.156;17.044;2023-10-09T17:07:00;15;13;
70691;PMS5003;58267;51.156;17.044;2023-10-09T17:09:25;16;15;
70691;PMS5003;58267;51.156;17.044;2023-10-09T17:11:51;13;13;
70691;PMS5003;58267;51.156;17.044;2023-10-09T17:14:16;17;16;
70691;PMS5003;58267;51.156;17.044;2023-10-09T17:16:41;16;16;
70691;PMS5003;58267;51.156;17.044;2023-10-09T17:19:07;16;15;
70691;PMS5003;58267;51.156;17.044;2023-10-09T17:21:32;16;15;
70691;PMS5003;58267;51.156;17.044;2023-10-09T17:23:57;17;16;
70691;PMS5003;58267;51.156;17.044;2023-10-09T17:26:22;19;18;
70691;PMS5003;58267;51.156;17.044;2023-10-09T17:28:48;23;21;
70691;PMS5003;58267;51.156;17.044;2023-10-09T17:31:13;16;15;
70691;PMS5003;58267;51.156;17.044;2023-10-09T17:33:38;19;19;
70691;PMS5003;58267;51.156;17.044;2023-10-09T17:36:05;20;20;
70691;PMS5003;58267;51.156;17.044;2023-10-09T17:38:29;20;19;
70691;PMS5003;58267;51.156;17.044;2023-10-09T17:40:55;20;20;
70691;PMS5003;58267;51.156;17.044;2023-10-09T17:43:20;24;24;
70691;PMS5003;58267;51.156;17.044;2023-10-09T17:45:45;26;24;
70691;PMS5003;58267;51.156;17.044;2023-10-09T17:48:11;32;29;
70691;PMS5003;58267;51.156;17.044;2023-10-09T17:50:41;29;26;
70691;PMS5003;58267;51.156;17.044;2023-10-09T17:53:02;22;21;
70691;PMS5003;58267;51.156;17.044;2023-10-09T17:55:27;31;28;
70691;PMS5003;58267;51.156;17.044;2023-10-09T17:57:52;25;25;
70691;PMS5003;58267;51.156;17.044;2023-10-09T18:00:18;27;25;
70691;PMS5003;58267;51.156;17.044;2023-10-09T18:02:43;30;29;
70691;PMS5003;58267;51.156;17.044;2023-10-09T18:05:09;28;27;
70691;PMS5003;58267;51.156;17.044;2023-10-09T18:07:34;23;22;
70691;PMS5003;58267;51.156;17.044;2023-10-09T18:10:00;24;24;
70691;PMS5003;58267;51.156;17.044;2023-10-09T18:12:25;23;23;
70691;PMS5003;58267;51.156;17.044;2023-10-09T18:14:51;27;25;
70691;PMS5003;58267;51.156;17.044;2023-10-09T18:17:16;21;21;
70691;PMS5003;58267;51.156;17.044;2023-10-09T18:19:42;24;23;
70691;PMS5003;58267;51.156;17.044;2023-10-09T18:22:08;22;22;
70691;PMS5003;58267;51.156;17.044;2023-10-09T18:24:33;26;25;
70691;PMS5003;58267;51.156;17.044;2023-10-09T18:26:59;26;26;
70691;PMS5003;58267;51.156;17.044;2023-10-09T18:29:24;26;24;
70691;PMS5003;58267;51.156;17.044;2023-10-09T18:31:50;29;28;
70691;PMS5003;58267;51.156;17.044;2023-10-09T18:34:16;23;22;
70691;PMS5003;58267;51.156;17.044;2023-10-09T18:36:42;26;24;
70691;PMS5003;58267;51.156;17.044;2023-10-09T18:39:07;27;25;
70691;PMS5003;58267;51.156;17.044;2023-10-09T18:41:33;28;26;
70691;PMS5003;58267;51.156;17.044;2023-10-09T18:43:59;25;24;
70691;PMS5003;58267;51.156;17.044;2023-10-09T18:46:24;26;25;
70691;PMS5003;58267;51.156;17.044;2023-10-09T18:48:49;26;25;
70691;PMS5003;58267;51.156;17.044;2023-10-09T18:51:15;23;22;
70691;PMS5003;58267;51.156;17.044;2023-10-09T18:53:40;24;23;
70691;PMS5003;58267;51.156;17.044;2023-10-09T18:58:31;28;27;
70691;PMS5003;58267;51.156;17.044;2023-10-09T19:00:56;24;24;
70691;PMS5003;58267;51.156;17.044;2023-10-09T19:03:22;30;29;
70691;PMS5003;58267;51.156;17.044;2023-10-09T19:05:47;29;28;
70691;PMS5003;58267;51.156;17.044;2023-10-09T19:08:13;31;26;
70691;PMS5003;58267;51.156;17.044;2023-10-09T19:10:38;32;29;
70691;PMS5003;58267;51.156;17.044;2023-10-09T19:13:04;31;30;
70691;PMS5003;58267;51.156;17.044;2023-10-09T19:15:29;30;27;
70691;PMS5003;58267;51.156;17.044;2023-10-09T19:17:55;28;26;
70691;PMS5003;58267;51.156;17.044;2023-10-09T19:20:20;28;28;
70691;PMS5003;58267;51.156;17.044;2023-10-09T19:22:46;28;27;
70691;PMS5003;58267;51.156;17.044;2023-10-09T19:25:11;34;31;
70691;PMS5003;58267;51.156;17.044;2023-10-09T19:27:36;34;33;
70691;PMS5003;58267;51.156;17.044;2023-10-09T19:30:02;28;28;
70691;PMS5003;58267;51.156;17.044;2023-10-09T19:32:27;25;24;
70691;PMS5003;58267;51.156;17.044;2023-10-09T19:34:52;34;32;
70691;PMS5003;58267;51.156;17.044;2023-10-09T19:37:18;30;27;
70691;PMS5003;58267;51.156;17.044;2023-10-09T19:39:43;22;22;
70691;PMS5003;58267;51.156;17.044;2023-10-09T19:42:08;31;30;
70691;PMS5003;58267;51.156;17.044;2023-10-09T19:44:34;29;28;
70691;PMS5003;58267;51.156;17.044;2023-10-09T19:47:00;31;30;
70691;PMS5003;58267;51.156;17.044;2023-10-09T19:49:26;29;28;
70691;PMS5003;58267;51.156;17.044;2023-10-09T19:51:51;33;32;
70691;PMS5003;58267;51.156;17.044;2023-10-09T19:54:17;38;36;
70691;PMS5003;58267;51.156;17.044;2023-10-09T19:56:43;39;38;
70691;PMS5003;58267;51.156;17.044;2023-10-09T19:59:08;39;36;
70691;PMS5003;58267;51.156;17.044;2023-10-09T20:01:33;37;36;
70691;PMS5003;58267;51.156;17.044;2023-10-09T20:03:58;31;29;
70691;PMS5003;58267;51.156;17.044;2023-10-09T20:06:23;28;27;
70691;PMS5003;58267;51.156;17.044;2023-10-09T20:08:49;30;29;
70691;PMS5003;58267;51.156;17.044;2023-10-09T20:11:15;30;30;
70691;PMS5003;58267;51.156;17.044;2023-10-09T20:13:40;30;29;
70691;PMS5003;58267;51.156;17.044;2023-10-09T20:16:05;34;33;
70691;PMS5003;58267;51.156;17.044;2023-10-09T20:18:31;33;31;
70691;PMS5003;58267;51.156;17.044;2023-10-09T20:20:58;32;31;
70691;PMS5003;58267;51.156;17.044;2023-10-09T20:23:21;33;32;
70691;PMS5003;58267;51.156;17.044;2023-10-09T20:25:47;32;32;
70691;PMS5003;58267;51.156;17.044;2023-10-09T20:28:12;41;38;
70691;PMS5003;58267;51.156;17.044;2023-10-09T20:30:37;36;36;
70691;PMS5003;58267;51.156;17.044;2023-10-09T20:33:03;36;34;
70691;PMS5003;58267;51.156;17.044;2023-10-09T20:35:28;36;35;
70691;PMS5003;58267;51.156;17.044;2023-10-09T20:37:54;36;35;
70691;PMS5003;58267;51.156;17.044;2023-10-09T20:40:19;29;29;
70691;PMS5003;58267;51.156;17.044;2023-10-09T20:42:47;38;36;
70691;PMS5003;58267;51.156;17.044;2023-10-09T20:45:10;34;32;
70691;PMS5003;58267;51.156;17.044;2023-10-09T20:47:35;37;34;
70691;PMS5003;58267;51.156;17.044;2023-10-09T20:50:00;37;35;
70691;PMS5003;58267;51.156;17.044;2023-10-09T20:52:25;32;32;
70691;PMS5003;58267;51.156;17.044;2023-10-09T20:54:51;30;29;
70691;PMS5003;58267;51.156;17.044;2023-10-09T20:57:16;36;34;
70691;PMS5003;58267;51.156;17.044;2023-10-09T20:59:41;33;31;
70691;PMS5003;58267;51.156;17.044;2023-10-09T21:02:07;36;32;
70691;PMS5003;58267;51.156;17.044;2023-10-09T21:04:33;28;25;
70691;PMS5003;58267;51.156;17.044;2023-10-09T21:06:58;28;27;
70691;PMS5003;58267;51.156;17.044;2023-10-09T21:09:24;26;25;
70691;PMS5003;58267;51.156;17.044;2023-10-09T21:11:49;32;28;
70691;PMS5003;58267;51.156;17.044;2023-10-09T21:14:15;28;26;
70691;PMS5003;58267;51.156;17.044;2023-10-09T21:16:41;24;23;
70691;PMS5003;58267;51.156;17.044;2023-10-09T21:19:06;28;27;
70691;PMS5003;58267;51.156;17.044;2023-10-09T21:21:31;29;29;
70691;PMS5003;58267;51.156;17.044;2023-10-09T21:23:57;29;28;
70691;PMS5003;58267;51.156;17.044;2023-10-09T21:26:23;31;29;
70691;PMS5003;58267;51.156;17.044;2023-10-09T21:28:49;36;34;
70691;PMS5003;58267;51.156;17.044;2023-10-09T21:31:14;30;28;
70691;PMS5003;58267;51.156;17.044;2023-10-09T21:33:39;26;25;
70691;PMS5003;58267;51.156;17.044;2023-10-09T21:36:05;33;33;
70691;PMS5003;58267;51.156;17.044;2023-10-09T21:38:30;32;30;
70691;PMS5003;58267;51.156;17.044;2023-10-09T21:40:56;35;33;
70691;PMS5003;58267;51.156;17.044;2023-10-09T21:43:21;28;27;
70691;PMS5003;58267;51.156;17.044;2023-10-09T21:45:47;29;28;
70691;PMS5003;58267;51.156;17.044;2023-10-09T21:48:12;36;31;
70691;PMS5003;58267;51.156;17.044;2023-10-09T21:50:38;31;30;
70691;PMS5003;58267;51.156;17.044;2023-10-09T21:53:04;31;30;
70691;PMS5003;58267;51.156;17.044;2023-10-09T21:55:28;29;28;
70691;PMS5003;58267;51.156;17.044;2023-10-09T21:57:54;29;29;
70691;PMS5003;58267;51.156;17.044;2023-10-09T22:00:20;29;28;
70691;PMS5003;58267;51.156;17.044;2023-10-09T22:02:45;29;26;
70691;PMS5003;58267;51.156;17.044;2023-10-09T22:05:10;27;25;
70691;PMS5003;58267;51.156;17.044;2023-10-09T22:07:36;30;29;
70691;PMS5003;58267;51.156;17.044;2023-10-09T22:10:02;32;30;
70691;PMS5003;58267;51.156;17.044;2023-10-09T22:12:27;29;26;
70691;PMS5003;58267;51.156;17.044;2023-10-09T22:14:53;26;24;
70691;PMS5003;58267;51.156;17.044;2023-10-09T22:17:18;26;26;
70691;PMS5003;58267;51.156;17.044;2023-10-09T22:19:43;26;24;
70691;PMS5003;58267;51.156;17.044;2023-10-09T22:22:09;28;27;
70691;PMS5003;58267;51.156;17.044;2023-10-09T22:24:34;28;28;
70691;PMS5003;58267;51.156;17.044;2023-10-09T22:27:00;27;25;
70691;PMS5003;58267;51.156;17.044;2023-10-09T22:29:26;32;28;
70691;PMS5003;58267;51.156;17.044;2023-10-09T22:31:52;26;26;
70691;PMS5003;58267;51.156;17.044;2023-10-09T22:34:17;28;27;
70691;PMS5003;58267;51.156;17.044;2023-10-09T22:36:44;28;27;
70691;PMS5003;58267;51.156;17.044;2023-10-09T22:39:08;26;24;
70691;PMS5003;58267;51.156;17.044;2023-10-09T22:41:34;29;29;
70691;PMS5003;58267;51.156;17.044;2023-10-09T22:43:59;33;30;
70691;PMS5003;58267;51.156;17.044;2023-10-09T22:46:25;30;29;
70691;PMS5003;58267;51.156;17.044;2023-10-09T22:48:50;33;32;
70691;PMS5003;58267;51.156;17.044;2023-10-09T22:51:16;33;30;
70691;PMS5003;58267;51.156;17.044;2023-10-09T22:53:41;30;29;
70691;PMS5003;58267;51.156;17.044;2023-10-09T22:56:08;32;31;
70691;PMS5003;58267;51.156;17.044;2023-10-09T22:58:32;28;25;
70691;PMS5003;58267;51.156;17.044;2023-10-09T23:00:57;39;36;
70691;PMS5003;58267;51.156;17.044;2023-10-09T23:03:23;33;32;
70691;PMS5003;58267;51.156;17.044;2023-10-09T23:05:48;32;28;
70691;PMS5003;58267;51.156;17.044;2023-10-09T23:08:14;30;29;
70691;PMS5003;58267;51.156;17.044;2023-10-09T23:10:39;30;29;
70691;PMS5003;58267;51.156;17.044;2023-10-09T23:13:04;31;27;
70691;PMS5003;58267;51.156;17.044;2023-10-09T23:15:30;30;30;
70691;PMS5003;58267;51.156;17.044;2023-10-09T23:17:56;30;30;
70691;PMS5003;58267;51.156;17.044;2023-10-09T23:20:26;32;30;
70691;PMS5003;58267;51.156;17.044;2023-10-09T23:22:47;34;31;
70691;PMS5003;58267;51.156;17.044;2023-10-09T23:25:12;39;38;
70691;PMS5003;58267;51.156;17.044;2023-10-09T23:27:38;41;37;
70691;PMS5003;58267;51.156;17.044;2023-10-09T23:30:04;33;32;
70691;PMS5003;58267;51.156;17.044;2023-10-09T23:32:35;37;35;
70691;PMS5003;58267;51.156;17.044;2023-10-09T23:34:54;39;35;
70691;PMS5003;58267;51.156;17.044;2023-10-09T23:37:20;33;32;